Time;durP1;ratioP1;P1;durP2;ratioP2;P2;SDS_P1;SDS_P2;PMS_P1;PMS_P2;Temp;Humidity;BMP_temperature;BMP_pressure;BME280_temperature;BME280_humidity;BME280_pressure;Samples;Min_cycle;Max_cycle;Signal;HPM_P1;HPM_P2
2022/06/02 00:00:01;;;;;;;13.55;12.20;;;9.00;99.90;;;;;;5004771;28;20439;-52
2022/06/02 00:02:27;;;;;;;14.93;13.63;;;8.90;99.90;;;;;;5004655;28;20042;-48
2022/06/02 00:05:08;;;;;;;14.50;13.20;;;8.90;99.90;;;;;;5004186;28;20935;-52
2022/06/02 00:08:00;;;;;;;14.32;12.90;;;8.90;99.90;;;;;;5003515;28;20621;-49
2022/06/02 00:10:38;;;;;;;13.23;12.13;;;8.80;99.90;;;;;;5004564;28;20492;-47
2022/06/02 00:13:32;;;;;;;14.15;12.88;;;8.80;99.90;;;;;;5004450;28;20045;-52
2022/06/02 00:16:03;;;;;;;15.35;13.88;;;8.80;99.90;;;;;;5005309;28;20073;-49
2022/06/02 00:18:38;;;;;;;14.75;13.45;;;8.80;99.90;;;;;;5001012;28;20528;-48
2022/06/02 00:21:19;;;;;;;13.63;12.32;;;;;;;;;;5005535;28;20056;-47
2022/06/02 00:23:53;;;;;;;15.02;13.65;;;8.70;99.90;;;;;;5001840;28;20164;-48
2022/06/02 00:26:34;;;;;;;13.02;11.73;;;8.60;99.90;;;;;;5004159;28;20063;-48
2022/06/02 00:29:25;;;;;;;13.15;12.02;;;8.60;99.90;;;;;;5002563;28;20097;-47
2022/06/02 00:32:07;;;;;;;14.45;12.82;;;8.50;99.90;;;;;;5017152;28;20451;-48
2022/06/02 00:35:00;;;;;;;15.23;13.82;;;8.50;99.90;;;;;;5004173;28;20046;-49
2022/06/02 00:37:30;;;;;;;14.30;13.00;;;8.50;99.90;;;;;;5000000;28;21797;-48
2022/06/02 00:39:58;;;;;;;15.93;14.43;;;8.50;99.90;;;;;;4997848;28;20042;-54
2022/06/02 00:42:50;;;;;;;15.65;14.18;;;8.50;99.90;;;;;;5000398;28;20161;-50
2022/06/02 00:45:17;;;;;;;15.18;13.68;;;8.40;99.90;;;;;;5001914;28;20052;-52
2022/06/02 00:48:12;;;;;;;15.32;13.85;;;8.40;99.90;;;;;;5002575;28;20054;-49
2022/06/02 00:50:38;;;;;;;15.48;13.95;;;;;;;;;;5003632;28;20056;-52
2022/06/02 00:53:19;;;;;;;15.38;14.00;;;8.30;99.90;;;;;;5000282;28;20087;-54
2022/06/02 00:59:33;;;;;;;15.43;13.95;;;8.30;99.90;;;;;;5002267;28;20042;-50
2022/06/02 01:01:59;;;;;;;16.13;14.63;;;8.30;99.90;;;;;;5003744;28;20038;-50
2022/06/02 01:04:24;;;;;;;15.45;13.95;;;8.30;99.90;;;;;;5005900;28;20499;-52
2022/06/02 01:06:57;;;;;;;15.15;13.85;;;8.30;99.90;;;;;;5003063;28;20141;-49
2022/06/02 01:09:46;;;;;;;16.40;14.90;;;8.20;99.90;;;;;;5002229;28;20050;-53
2022/06/02 01:12:17;;;;;;;16.33;14.73;;;;;;;;;;5001703;28;20173;-52
2022/06/02 01:15:10;;;;;;;16.00;14.50;;;8.20;99.90;;;;;;5003483;28;20128;-50
2022/06/02 01:18:06;;;;;;;15.63;14.05;;;8.20;99.90;;;;;;5005214;28;20570;-48
2022/06/02 01:20:40;;;;;;;14.63;13.35;;;8.10;99.90;;;;;;5002350;28;20046;-50
2022/06/02 01:23:25;;;;;;;15.15;13.73;;;8.10;99.90;;;;;;5002793;28;20041;-48
2022/06/02 01:26:27;;;;;;;13.52;12.35;;;8.00;99.90;;;;;;5001516;28;20037;-49
2022/06/02 01:28:59;;;;;;;16.33;14.65;;;8.00;99.90;;;;;;5000152;28;20046;-49
2022/06/02 01:31:24;;;;;;;16.70;15.07;;;8.00;99.90;;;;;;5001380;28;20464;-53
2022/06/02 01:34:17;;;;;;;16.50;14.90;;;7.90;99.90;;;;;;5002248;28;20045;-50
2022/06/02 01:37:13;;;;;;;15.43;14.02;;;7.90;99.90;;;;;;4997877;28;20058;-53
2022/06/02 01:40:02;;;;;;;15.98;14.38;;;7.90;99.90;;;;;;4996247;28;20118;-51
2022/06/02 01:42:34;;;;;;;16.08;14.48;;;7.90;99.90;;;;;;4999341;28;20046;-50
2022/06/02 01:45:09;;;;;;;15.32;13.90;;;7.90;99.90;;;;;;5001245;28;20916;-48
2022/06/02 01:47:43;;;;;;;14.57;13.10;;;7.90;99.90;;;;;;4999977;28;20415;-48
2022/06/02 01:50:44;;;;;;;14.20;13.00;;;7.80;99.90;;;;;;5000919;28;20108;-47
2022/06/02 01:53:18;;;;;;;16.48;14.98;;;7.80;99.90;;;;;;4998006;28;20057;-50
2022/06/02 01:55:54;;;;;;;15.57;14.18;;;7.70;99.90;;;;;;4999518;28;20108;-48
2022/06/02 01:58:41;;;;;;;16.73;15.10;;;7.80;99.90;;;;;;5000540;28;20110;-51
2022/06/02 02:01:24;;;;;;;14.90;13.40;;;7.70;99.90;;;;;;5003697;28;20506;-52
2022/06/02 02:04:27;;;;;;;16.13;14.73;;;7.90;99.90;;;;;;5001297;28;20056;-52
2022/06/02 02:07:04;;;;;;;19.60;17.50;;;7.90;99.90;;;;;;5001827;28;20038;-48
2022/06/02 02:10:02;;;;;;;15.68;14.18;;;7.90;99.90;;;;;;5002054;28;20060;-50
2022/06/02 02:12:48;;;;;;;16.13;14.57;;;7.70;99.90;;;;;;4998136;28;20464;-52
2022/06/02 02:15:38;;;;;;;15.60;14.10;;;7.70;99.90;;;;;;5002282;28;20045;-53
2022/06/02 02:18:45;;;;;;;17.33;15.52;;;7.60;99.90;;;;;;5003007;28;20531;-48
2022/06/02 02:21:18;;;;;;;;;;;7.50;99.90;;;;;;5001027;28;20546;-49
2022/06/02 02:23:58;;;;;;;16.88;15.27;;;7.60;99.90;;;;;;5004529;28;19947;-48
2022/06/02 02:26:36;;;;;;;18.00;16.25;;;7.50;99.90;;;;;;5001530;28;20088;-49
2022/06/02 02:29:16;;;;;;;17.08;15.40;;;7.70;99.90;;;;;;5001198;28;20042;-48
2022/06/02 02:32:05;;;;;;;17.30;15.60;;;7.70;99.90;;;;;;5002770;28;20369;-49
2022/06/02 02:35:02;;;;;;;19.00;17.02;;;7.50;99.90;;;;;;5002000;28;20049;-49
2022/06/02 02:37:47;;;;;;;16.92;15.23;;;7.50;99.90;;;;;;4999496;28;20049;-48
2022/06/02 02:40:27;;;;;;;16.48;14.93;;;7.40;99.90;;;;;;4996066;28;20077;-51
2022/06/02 02:42:58;;;;;;;16.35;14.85;;;7.40;99.90;;;;;;5004130;28;20777;-50
2022/06/02 02:45:46;;;;;;;18.48;16.52;;;7.40;99.90;;;;;;5004120;28;20374;-51
2022/06/02 02:48:37;;;;;;;17.73;15.93;;;7.40;99.90;;;;;;5007333;28;20045;-48
2022/06/02 02:51:05;;;;;;;17.83;16.05;;;7.30;99.90;;;;;;5005590;28;20046;-49
2022/06/02 02:53:40;;;;;;;17.27;15.55;;;7.30;99.90;;;;;;5006706;28;20046;-49
2022/06/02 02:56:29;;;;;;;17.90;16.02;;;7.30;99.90;;;;;;5004683;28;20461;-51
2022/06/02 02:59:22;;;;;;;18.50;16.65;;;7.30;99.90;;;;;;5006533;28;20046;-49
2022/06/02 03:02:05;;;;;;;19.92;17.83;;;7.20;99.90;;;;;;5006124;28;20785;-50
2022/06/02 03:04:55;;;;;;;18.30;16.52;;;7.20;99.90;;;;;;5005702;28;20396;-53
2022/06/02 03:07:22;;;;;;;17.00;15.18;;;7.20;99.90;;;;;;5006245;28;20038;-48
2022/06/02 03:10:01;;;;;;;18.67;16.80;;;7.20;99.90;;;;;;5005973;28;20042;-51
2022/06/02 03:12:58;;;;;;;16.10;14.50;;;7.10;99.90;;;;;;5006010;28;20054;-49
2022/06/02 03:15:40;;;;;;;17.05;15.45;;;7.10;99.90;;;;;;5002348;28;20041;-48
2022/06/02 03:18:34;;;;;;;20.30;18.40;;;7.10;99.90;;;;;;5004536;28;20449;-49
2022/06/02 03:21:21;;;;;;;19.00;17.08;;;7.20;99.90;;;;;;5003394;28;20045;-48
2022/06/02 03:24:05;;;;;;;18.55;16.77;;;7.10;99.90;;;;;;5021161;28;20038;-51
2022/06/02 03:26:55;;;;;;;18.08;16.15;;;7.10;99.90;;;;;;5005600;28;20120;-50
2022/06/02 03:29:35;;;;;;;18.40;16.60;;;7.10;99.90;;;;;;5006377;28;20403;-50
2022/06/02 03:32:26;;;;;;;22.02;19.73;;;7.10;99.90;;;;;;5004154;28;20122;-47
2022/06/02 03:35:04;;;;;;;19.42;17.42;;;7.10;99.90;;;;;;5005101;28;20697;-52
2022/06/02 03:37:37;;;;;;;22.45;20.27;;;7.10;99.90;;;;;;5000315;28;20488;-48
2022/06/02 03:40:20;;;;;;;20.85;18.85;;;7.20;99.90;;;;;;5001398;28;20476;-47
2022/06/02 03:43:28;;;;;;;18.67;16.88;;;7.20;99.90;;;;;;5002066;28;20045;-47
2022/06/02 03:46:23;;;;;;;20.63;18.48;;;7.20;99.90;;;;;;5005458;28;20096;-47
2022/06/02 03:48:55;;;;;;;21.67;19.48;;;7.30;99.90;;;;;;5001615;28;20389;-48
2022/06/02 03:51:50;;;;;;;22.60;20.30;;;7.30;99.90;;;;;;5004960;28;20068;-48
2022/06/02 03:54:24;;;;;;;24.25;21.23;;;7.30;99.90;;;;;;5006285;28;20523;-50
2022/06/02 03:57:02;;;;;;;21.17;19.05;;;7.40;99.90;;;;;;5005439;28;20037;-48
2022/06/02 03:59:30;;;;;;;21.05;19.00;;;7.40;99.90;;;;;;5007567;28;20038;-47
2022/06/02 04:02:03;;;;;;;23.10;20.60;;;7.40;99.90;;;;;;5003571;28;20432;-48
2022/06/02 04:04:51;;;;;;;21.95;19.70;;;7.50;99.90;;;;;;5006799;28;20038;-47
2022/06/02 04:07:16;;;;;;;22.85;20.45;;;7.60;99.90;;;;;;5006171;28;20481;-52
2022/06/02 04:10:06;;;;;;;22.73;20.33;;;7.60;99.90;;;;;;5007811;28;20048;-50
2022/06/02 04:15:58;;;;;;;21.00;18.90;;;7.70;99.90;;;;;;5005188;28;20072;-48
2022/06/02 04:18:42;;;;;;;23.60;21.10;;;7.80;99.90;;;;;;5005318;28;20697;-50
2022/06/02 04:21:10;;;;;;;23.60;21.13;;;7.90;99.90;;;;;;5004998;28;20041;-52
2022/06/02 04:23:45;;;;;;;22.65;20.25;;;8.00;99.90;;;;;;5005424;28;20523;-48
2022/06/02 04:26:31;;;;;;;24.58;21.98;;;8.10;99.90;;;;;;5004392;28;20049;-52
2022/06/02 04:29:09;;;;;;;24.35;21.80;;;8.20;99.90;;;;;;5005902;28;20053;-48
2022/06/02 04:32:03;;;;;;;25.38;22.77;;;8.30;99.90;;;;;;5004256;28;20045;-50
2022/06/02 04:34:49;;;;;;;28.67;25.05;;;10.00;99.90;;;;;;5004770;28;20129;-48
2022/06/02 04:37:35;;;;;;;26.05;23.33;;;10.00;99.90;;;;;;5002926;28;20046;-49
2022/06/02 04:40:10;;;;;;;24.27;21.75;;;11.40;99.90;;;;;;5000975;28;20093;-50
2022/06/02 04:43:01;;;;;;;25.10;22.27;;;12.50;99.90;;;;;;5003525;28;20049;-48
2022/06/02 04:45:34;;;;;;;20.23;18.33;;;13.70;99.90;;;;;;5003643;28;20077;-50
2022/06/02 04:48:16;;;;;;;21.48;19.40;;;15.00;99.90;;;;;;5001537;28;20054;-48
2022/06/02 04:51:17;;;;;;;18.80;16.98;;;15.90;99.90;;;;;;5000996;28;20107;-48
2022/06/02 04:53:42;;;;;;;17.00;15.55;;;;;;;;;;4965344;28;20358;-48
2022/06/02 04:56:37;;;;;;;15.98;14.05;;;16.90;99.90;;;;;;5003033;28;20052;-51
2022/06/02 04:59:14;;;;;;;15.27;13.77;;;17.60;99.90;;;;;;4941666;28;20051;-52
2022/06/02 05:01:52;;;;;;;14.40;13.07;;;17.60;99.90;;;;;;4943945;28;20047;-50
2022/06/02 05:04:39;;;;;;;13.70;12.70;;;17.90;99.90;;;;;;4946267;28;20191;-52
2022/06/02 05:07:46;;;;;;;13.88;12.68;;;18.40;99.90;;;;;;4941738;28;20585;-52
2022/06/02 05:10:20;;;;;;;;;;;18.70;99.90;;;;;;4908236;29;20052;-49
2022/06/02 05:12:57;;;;;;;12.60;11.50;;;19.20;99.90;;;;;;4909100;29;20307;-52
2022/06/02 05:15:52;;;;;;;12.10;11.00;;;19.50;99.90;;;;;;4903430;29;20159;-51
2022/06/02 05:18:39;;;;;;;12.18;11.10;;;19.80;99.90;;;;;;4902476;29;20056;-50
2022/06/02 05:21:23;;;;;;;11.65;10.75;;;20.10;99.90;;;;;;4906899;29;20162;-52
2022/06/02 05:24:06;;;;;;;11.00;10.10;;;20.70;99.90;;;;;;4909296;29;20056;-52
2022/06/02 05:27:08;;;;;;;11.55;10.55;;;20.90;99.90;;;;;;4911397;29;20079;-52
2022/06/02 05:30:02;;;;;;;10.80;9.80;;;21.10;99.90;;;;;;4909226;29;20095;-49
2022/06/02 05:32:40;;;;;;;10.68;9.77;;;21.30;99.90;;;;;;4906516;29;20044;-52
2022/06/02 05:35:29;;;;;;;11.85;9.48;;;21.30;99.90;;;;;;4908850;28;20078;-52
2022/06/02 05:38:13;;;;;;;9.93;9.15;;;21.70;99.90;;;;;;4969365;28;20121;-51
2022/06/02 05:41:18;;;;;;;10.55;9.55;;;22.00;99.90;;;;;;4962219;28;20047;-53
2022/06/02 05:43:46;;;;;;;9.98;9.07;;;22.10;99.90;;;;;;4962550;28;20145;-53
2022/06/02 05:46:30;;;;;;;9.05;8.35;;;22.20;99.90;;;;;;4975802;28;20061;-51
2022/06/02 05:49:21;;;;;;;10.20;9.30;;;22.50;99.90;;;;;;5000871;28;20460;-54
2022/06/02 05:52:00;;;;;;;9.82;8.82;;;22.60;99.90;;;;;;4999412;28;20388;-54
2022/06/02 05:54:47;;;;;;;9.02;8.13;;;22.80;99.90;;;;;;5004062;28;20128;-53
2022/06/02 05:57:37;;;;;;;8.48;7.68;;;22.90;99.90;;;;;;5001067;28;20480;-51
2022/06/02 06:00:14;;;;;;;8.48;7.57;;;23.00;99.40;;;;;;5002551;28;20041;-50
2022/06/02 06:03:11;;;;;;;8.32;7.38;;;23.10;98.80;;;;;;4999813;28;20773;-51
2022/06/02 06:06:07;;;;;;;7.43;6.82;;;23.20;98.30;;;;;;5003686;28;20507;-52
2022/06/02 06:09:01;;;;;;;7.97;7.18;;;23.40;97.30;;;;;;5001076;28;20073;-50
2022/06/02 06:12:05;;;;;;;6.82;6.32;;;23.60;96.10;;;;;;5001822;28;20050;-51
2022/06/02 06:14:47;;;;;;;7.20;6.60;;;23.80;93.50;;;;;;5005035;28;20045;-51
2022/06/02 06:17:39;;;;;;;7.43;6.63;;;23.70;94.40;;;;;;5001905;28;20584;-52
2022/06/02 06:20:12;;;;;;;6.60;6.00;;;23.70;94.00;;;;;;5004939;28;20042;-51
2022/06/02 06:22:43;;;;;;;7.10;6.50;;;23.80;93.80;;;;;;4998378;28;20050;-55
2022/06/02 06:25:12;;;;;;;7.80;7.10;;;23.90;90.10;;;;;;5004731;28;20049;-54
2022/06/02 06:28:03;;;;;;;7.55;6.85;;;23.90;93.30;;;;;;4998321;28;20089;-52
2022/06/02 06:30:53;;;;;;;5.30;4.80;;;24.00;94.00;;;;;;5000312;28;20038;-54
2022/06/02 06:33:24;;;;;;;5.57;5.07;;;24.00;91.20;;;;;;4999906;28;20176;-54
2022/06/02 06:35:56;;;;;;;5.32;4.82;;;23.90;87.80;;;;;;5002835;28;20034;-54
2022/06/02 06:38:39;;;;;;;6.40;4.72;;;24.00;91.30;;;;;;5002572;28;20094;-52
2022/06/02 06:41:31;;;;;;;5.70;5.20;;;24.10;90.30;;;;;;4997673;28;20136;-55
2022/06/02 06:44:02;;;;;;;5.65;5.13;;;24.30;87.60;;;;;;4990515;28;20065;-54
2022/06/02 06:46:36;;;;;;;5.70;5.18;;;24.20;91.10;;;;;;5002585;28;20408;-52
2022/06/02 06:49:37;;;;;;;5.18;4.70;;;24.20;88.80;;;;;;4998978;28;20515;-53
2022/06/02 06:52:39;;;;;;;5.65;5.22;;;24.10;86.80;;;;;;4997859;28;20058;-53
2022/06/02 06:55:39;;;;;;;4.85;4.32;;;24.20;86.80;;;;;;5001318;28;20034;-51
2022/06/02 06:58:16;;;;;;;4.65;4.25;;;24.30;85.10;;;;;;5000328;28;20052;-55
2022/06/02 07:00:49;;;;;;;5.90;3.95;;;24.50;89.20;;;;;;5002537;28;20046;-53
2022/06/02 07:03:20;;;;;;;4.80;3.85;;;23.70;83.00;;;;;;5001468;28;20085;-54
2022/06/02 07:05:53;;;;;;;4.28;3.88;;;23.30;79.30;;;;;;5002367;28;20108;-54
2022/06/02 07:08:43;;;;;;;4.80;3.22;;;23.20;82.70;;;;;;5002117;28;20068;-51
2022/06/02 07:14:37;;;;;;;4.00;2.58;;;22.50;87.30;;;;;;5002048;28;20062;-54
2022/06/02 07:17:12;;;;;;;5.38;2.90;;;22.00;83.80;;;;;;4991622;28;20141;-54
2022/06/02 07:20:02;;;;;;;2.95;2.60;;;22.20;90.00;;;;;;5001890;28;20034;-54
2022/06/02 07:22:45;;;;;;;3.75;3.03;;;21.40;86.50;;;;;;5000071;28;20057;-54
2022/06/02 07:25:23;;;;;;;3.65;3.08;;;21.60;91.20;;;;;;5001384;28;20046;-51
2022/06/02 07:28:08;;;;;;;3.70;3.40;;;20.40;93.70;;;;;;5003018;28;20042;-51
2022/06/02 07:31:08;;;;;;;5.22;4.07;;;20.10;96.20;;;;;;4992683;28;20695;-51
2022/06/02 07:34:09;;;;;;;5.00;3.88;;;19.90;99.80;;;;;;4981001;28;20054;-54
2022/06/02 07:36:52;;;;;;;6.22;3.92;;;19.50;99.90;;;;;;5001688;28;20611;-53
2022/06/02 07:39:29;;;;;;;5.40;4.15;;;20.00;99.90;;;;;;5002102;28;20046;-50
2022/06/02 07:42:09;;;;;;;5.57;3.05;;;20.40;99.90;;;;;;4994113;28;20049;-54
2022/06/02 07:45:12;;;;;;;3.10;2.70;;;19.90;99.90;;;;;;4996876;28;20060;-52
2022/06/02 07:47:56;;;;;;;5.32;2.40;;;20.40;99.90;;;;;;5002286;28;20041;-52
2022/06/02 07:50:29;;;;;;;2.90;2.30;;;19.70;99.90;;;;;;4995961;28;20049;-50
2022/06/02 07:53:13;;;;;;;3.40;2.60;;;19.00;99.90;;;;;;4998021;28;20054;-52
2022/06/02 07:56:04;;;;;;;3.08;2.53;;;18.90;99.90;;;;;;5001770;28;20411;-52
2022/06/02 07:58:56;;;;;;;3.25;2.20;;;18.90;99.90;;;;;;4998482;28;20349;-54
2022/06/02 08:01:21;;;;;;;2.30;2.10;;;18.90;99.90;;;;;;5003085;28;20049;-50
2022/06/02 08:04:06;;;;;;;3.40;2.28;;;18.50;99.90;;;;;;5005557;28;20038;-51
2022/06/02 08:06:45;;;;;;;3.10;2.13;;;;;;;;;;5003583;28;20057;-50
2022/06/02 08:09:32;;;;;;;4.00;2.47;;;17.90;99.90;;;;;;5001428;28;20046;-48
2022/06/02 08:12:16;;;;;;;2.67;2.30;;;17.90;99.90;;;;;;5001650;28;20090;-53
2022/06/02 08:14:51;;;;;;;2.85;2.40;;;17.60;99.90;;;;;;4997418;28;20089;-53
2022/06/02 08:17:22;;;;;;;3.13;2.40;;;17.40;99.90;;;;;;5002026;28;20139;-49
2022/06/02 08:20:12;;;;;;;3.42;2.40;;;17.30;99.90;;;;;;5002603;28;20050;-54
2022/06/02 08:23:11;;;;;;;4.15;2.58;;;17.80;99.90;;;;;;5001220;28;20124;-50
2022/06/02 08:25:50;;;;;;;4.47;2.50;;;17.50;99.90;;;;;;4974785;28;20089;-52
2022/06/02 08:28:34;;;;;;;3.45;2.00;;;17.30;99.90;;;;;;5010362;28;20104;-52
2022/06/02 08:31:21;;;;;;;2.58;2.25;;;17.30;99.90;;;;;;5011947;28;20042;-50
2022/06/02 08:34:01;;;;;;;3.57;2.57;;;17.20;99.90;;;;;;5011107;28;20125;-52
2022/06/02 08:36:33;;;;;;;3.85;2.20;;;17.50;99.90;;;;;;5000676;28;20308;-52
2022/06/02 08:39:24;;;;;;;2.13;1.90;;;17.60;99.90;;;;;;5005388;28;20061;-49
2022/06/02 08:42:21;;;;;;;4.18;2.13;;;18.10;99.90;;;;;;5008372;28;20049;-54
2022/06/02 08:45:32;;;;;;;3.05;2.25;;;18.60;99.90;;;;;;5007147;28;20038;-53
2022/06/02 08:48:36;;;;;;;3.08;2.10;;;19.00;99.90;;;;;;5004137;28;20041;-49
2022/06/02 08:51:39;;;;;;;3.65;2.15;;;18.80;99.90;;;;;;5008453;28;20097;-52
2022/06/02 08:54:24;;;;;;;2.85;2.20;;;18.60;99.90;;;;;;5003613;28;20053;-50
2022/06/02 08:57:20;;;;;;;3.42;2.03;;;18.40;99.90;;;;;;5007612;28;20094;-52
2022/06/02 09:00:22;;;;;;;3.55;1.98;;;18.50;99.90;;;;;;5008666;28;20049;-54
2022/06/02 09:03:18;;;;;;;2.00;1.80;;;19.00;99.90;;;;;;5008523;28;20058;-52
2022/06/02 09:06:23;;;;;;;4.00;1.70;;;19.40;99.90;;;;;;5007328;28;20140;-53
2022/06/02 09:09:00;;;;;;;4.43;1.80;;;19.00;99.90;;;;;;5003621;28;20057;-53
2022/06/02 09:11:42;;;;;;;2.50;1.60;;;18.40;99.90;;;;;;5012999;28;20046;-53
2022/06/02 09:14:25;;;;;;;1.77;1.60;;;18.50;99.90;;;;;;5012715;28;20085;-54
2022/06/02 09:17:25;;;;;;;1.85;1.52;;;18.70;99.90;;;;;;5011931;28;20053;-53
2022/06/02 09:20:12;;;;;;;1.63;1.50;;;19.10;99.90;;;;;;5012367;28;20056;-53
2022/06/02 09:22:47;;;;;;;1.77;1.65;;;19.40;99.90;;;;;;5011492;28;20061;-54
2022/06/02 09:25:49;;;;;;;1.85;1.30;;;19.80;99.90;;;;;;5011751;28;20495;-53
2022/06/02 09:28:43;;;;;;;2.30;1.60;;;19.90;99.90;;;;;;5011793;28;20042;-54
2022/06/02 09:31:26;;;;;;;2.47;1.63;;;19.70;99.90;;;;;;5011202;28;20045;-52
2022/06/02 09:34:20;;;;;;;2.33;2.00;;;20.20;99.90;;;;;;5012274;28;20477;-53
2022/06/02 09:37:26;;;;;;;2.85;1.90;;;19.90;99.90;;;;;;5012371;28;20056;-55
2022/06/02 09:40:28;;;;;;;1.98;1.70;;;19.60;99.90;;;;;;4981970;28;20166;-52
2022/06/02 09:43:15;;;;;;;4.68;1.90;;;19.20;99.90;;;;;;5010985;28;20049;-53
2022/06/02 09:46:03;;;;;;;2.10;1.50;;;19.20;99.90;;;;;;5012219;28;20393;-51
2022/06/02 09:48:54;;;;;;;;;;;19.90;99.90;;;;;;5012679;28;20141;-55
2022/06/02 09:52:02;;;;;;;2.17;1.30;;;20.30;99.90;;;;;;4995610;28;20016;-53
2022/06/02 09:55:03;;;;;;;1.98;1.55;;;20.40;97.10;;;;;;5003260;28;20528;-54
2022/06/02 09:57:55;;;;;;;2.67;1.90;;;20.60;98.80;;;;;;5011387;28;20509;-53
2022/06/02 10:00:30;;;;;;;2.67;1.50;;;20.90;97.30;;;;;;5011590;28;20511;-54
2022/06/02 10:03:14;;;;;;;2.40;1.55;;;20.70;95.40;;;;;;5011905;28;20476;-54
2022/06/02 10:06:11;;;;;;;4.43;1.60;;;20.40;97.20;;;;;;5011893;28;20049;-53
2022/06/02 10:09:06;;;;;;;4.05;1.60;;;20.60;96.80;;;;;;5011072;28;20187;-54
2022/06/02 10:11:53;;;;;;;3.50;1.67;;;20.70;96.70;;;;;;5010918;28;20042;-52
2022/06/02 10:14:34;;;;;;;2.70;1.70;;;20.90;97.80;;;;;;5011022;28;20033;-53
2022/06/02 10:17:22;;;;;;;4.50;1.90;;;20.90;97.90;;;;;;5011571;28;20054;-54
2022/06/02 10:20:16;;;;;;;2.85;1.92;;;20.80;96.40;;;;;;5011396;28;20049;-54
2022/06/02 10:22:50;;;;;;;1.95;1.75;;;20.10;95.00;;;;;;5011062;28;20042;-53
2022/06/02 10:25:22;;;;;;;2.47;1.63;;;19.70;95.90;;;;;;5006112;28;20042;-53
2022/06/02 10:28:12;;;;;;;2.58;1.60;;;19.60;96.90;;;;;;5007247;28;20080;-53
2022/06/02 10:31:04;;;;;;;3.38;1.52;;;19.90;97.50;;;;;;5009041;28;20519;-52
2022/06/02 10:34:00;;;;;;;1.80;1.50;;;19.90;93.60;;;;;;5006597;28;20041;-51
2022/06/02 10:36:52;;;;;;;1.30;1.20;;;19.30;91.00;;;;;;5009923;28;20042;-54
2022/06/02 10:39:25;;;;;;;1.67;1.50;;;18.90;92.10;;;;;;5015854;28;20369;-52
2022/06/02 10:42:12;;;;;;;2.78;1.70;;;18.80;96.80;;;;;;5010321;28;20459;-52
2022/06/02 10:44:38;;;;;;;;;;;19.20;94.40;;;;;;5005472;28;20045;-50
2022/06/02 10:47:31;;;;;;;2.58;1.55;;;19.70;99.90;;;;;;5001724;28;19928;-55
2022/06/02 10:50:07;;;;;;;1.40;1.30;;;20.10;99.70;;;;;;5006380;28;20050;-54
2022/06/02 10:53:01;;;;;;;2.10;1.42;;;20.40;98.40;;;;;;5005150;28;20061;-52
2022/06/02 10:56:04;;;;;;;2.10;1.55;;;20.60;97.90;;;;;;4993049;28;20042;-54
2022/06/02 10:58:55;;;;;;;1.90;1.35;;;20.90;94.50;;;;;;5005446;28;20050;-54
2022/06/02 11:02:13;;;;;;;1.50;1.40;;;21.10;92.10;;;;;;4999544;28;20188;-54
2022/06/02 11:05:09;;;;;;;2.15;1.25;;;21.30;93.60;;;;;;4969695;28;20497;-52
2022/06/02 11:07:47;;;;;;;1.90;1.80;;;;;;;;;;4961250;28;20043;-53
2022/06/02 11:10:21;;;;;;;3.70;1.75;;;21.60;93.10;;;;;;4962900;28;20141;-52
2022/06/02 11:13:11;;;;;;;2.55;1.60;;;21.60;90.40;;;;;;4972757;28;20505;-54
2022/06/02 11:15:36;;;;;;;1.42;1.10;;;21.50;86.60;;;;;;4967950;28;20484;-53
2022/06/02 11:18:21;;;;;;;1.85;1.25;;;21.50;87.40;;;;;;4967865;28;20114;-49
2022/06/02 11:21:08;;;;;;;2.55;1.02;;;21.50;87.20;;;;;;4973437;28;20146;-53
2022/06/02 11:23:45;;;;;;;1.70;1.30;;;21.30;86.70;;;;;;4971348;28;20042;-51
2022/06/02 11:26:20;;;;;;;;;;;21.20;83.70;;;;;;4973423;28;20059;-54
2022/06/02 11:29:10;;;;;;;3.38;1.60;;;20.70;84.20;;;;;;4972329;28;19926;-52
2022/06/02 11:32:05;;;;;;;1.52;1.25;;;20.70;87.90;;;;;;4968773;28;20134;-53
2022/06/02 11:34:52;;;;;;;3.05;1.40;;;20.90;90.40;;;;;;4963643;28;20061;-54
2022/06/02 11:37:40;;;;;;;3.92;1.50;;;21.00;91.20;;;;;;4966734;28;20991;-52
2022/06/02 11:40:21;;;;;;;2.35;1.40;;;21.30;93.70;;;;;;4936650;28;20134;-51
2022/06/02 11:43:13;;;;;;;1.40;1.20;;;21.40;90.50;;;;;;4971487;28;20063;-52
2022/06/02 11:46:21;;;;;;;3.00;1.63;;;21.60;91.20;;;;;;4948273;29;20059;-50
2022/06/02 11:49:07;;;;;;;3.42;1.40;;;22.00;91.50;;;;;;4961923;28;20141;-52
2022/06/02 11:51:54;;;;;;;2.25;1.15;;;22.00;82.60;;;;;;4949716;29;20061;-54
2022/06/02 11:54:56;;;;;;;2.55;1.50;;;22.00;81.90;;;;;;4959317;28;20084;-50
2022/06/02 11:57:57;;;;;;;2.53;1.27;;;21.40;78.90;;;;;;4970983;28;20434;-51
2022/06/02 12:00:59;;;;;;;2.38;0.98;;;21.70;77.50;;;;;;4956655;28;20054;-53
2022/06/02 12:03:43;;;;;;;2.25;1.08;;;21.70;80.60;;;;;;4971099;28;20074;-50
2022/06/02 12:06:32;;;;;;;1.33;0.80;;;21.60;74.70;;;;;;4971007;28;20078;-51
2022/06/02 12:09:22;;;;;;;2.95;1.40;;;21.20;74.10;;;;;;4972656;28;20042;-51
2022/06/02 12:12:19;;;;;;;1.25;1.10;;;20.80;72.20;;;;;;4956372;28;20485;-49
2022/06/02 12:15:03;;;;;;;2.42;1.33;;;20.90;76.70;;;;;;4972435;28;20070;-52
2022/06/02 12:17:37;;;;;;;1.80;1.30;;;21.50;82.00;;;;;;4997941;28;20556;-52
2022/06/02 12:20:18;;;;;;;1.55;1.20;;;21.80;81.00;;;;;;5012157;28;20038;-52
2022/06/02 12:23:05;;;;;;;3.22;1.52;;;22.20;78.10;;;;;;5013239;28;20050;-51
2022/06/02 12:25:56;;;;;;;1.77;1.40;;;22.70;82.40;;;;;;5013716;28;20447;-54
2022/06/02 12:28:51;;;;;;;2.20;1.50;;;22.60;75.40;;;;;;5013438;28;20448;-51
2022/06/02 12:31:23;;;;;;;2.38;1.38;;;22.30;73.80;;;;;;5012445;28;20060;-52
2022/06/02 12:34:41;;;;;;;2.92;1.58;;;22.00;74.80;;;;;;5001048;28;20042;-54
2022/06/02 12:37:28;;;;;;;2.40;1.40;;;21.80;79.40;;;;;;4993851;28;20054;-53
2022/06/02 12:40:30;;;;;;;2.17;1.45;;;21.30;79.60;;;;;;5011718;28;20477;-53
2022/06/02 12:43:02;;;;;;;1.40;1.30;;;20.90;77.40;;;;;;5013315;28;20095;-53
2022/06/02 12:45:46;;;;;;;1.40;1.20;;;20.80;86.40;;;;;;4993632;28;20042;-51
2022/06/02 12:48:43;;;;;;;2.35;1.30;;;21.30;88.50;;;;;;5018205;28;20038;-54
2022/06/02 12:51:41;;;;;;;4.00;1.50;;;21.60;83.90;;;;;;4993352;28;20267;-53
2022/06/02 12:54:27;;;;;;;2.63;1.63;;;21.70;80.20;;;;;;5000573;28;20034;-53
2022/06/02 12:57:08;;;;;;;1.65;1.40;;;22.00;84.60;;;;;;5012963;28;20037;-53
2022/06/02 13:00:02;;;;;;;2.17;1.23;;;22.40;80.00;;;;;;5013201;28;20050;-52
2022/06/02 13:02:58;;;;;;;10.00;1.48;;;22.70;78.30;;;;;;5011950;28;20045;-51
2022/06/02 13:06:07;;;;;;;2.53;1.40;;;22.80;76.40;;;;;;5013448;28;20041;-52
2022/06/02 13:09:10;;;;;;;1.80;1.23;;;23.00;74.00;;;;;;5011326;28;20041;-54
2022/06/02 13:11:45;;;;;;;1.88;1.33;;;23.20;73.10;;;;;;5012105;28;20077;-51
2022/06/02 13:14:54;;;;;;;1.65;1.20;;;23.30;72.70;;;;;;5011418;28;20540;-50
2022/06/02 13:17:38;;;;;;;1.30;1.10;;;23.50;71.80;;;;;;5010067;28;20050;-54
2022/06/02 13:20:27;;;;;;;2.70;1.10;;;23.70;69.90;;;;;;5012674;28;20145;-52
2022/06/02 13:23:08;;;;;;;3.20;1.30;;;23.20;65.70;;;;;;4991637;28;20144;-53
2022/06/02 13:26:12;;;;;;;1.38;1.00;;;22.70;64.80;;;;;;5012379;28;20134;-52
2022/06/02 13:29:03;;;;;;;2.47;1.13;;;22.60;65.80;;;;;;5010829;28;20400;-52
2022/06/02 13:32:12;;;;;;;1.75;1.38;;;22.00;69.10;;;;;;5012502;28;20050;-50
2022/06/02 13:35:13;;;;;;;1.80;1.20;;;20.70;68.10;;;;;;5012467;28;20132;-51
2022/06/02 13:38:20;;;;;;;1.15;1.10;;;20.40;70.50;;;;;;5011120;28;20074;-50
2022/06/02 13:41:04;;;;;;;1.45;1.27;;;20.00;73.40;;;;;;5012080;28;20050;-50
2022/06/02 13:43:46;;;;;;;1.85;1.40;;;20.00;75.10;;;;;;4991194;28;20046;-49
2022/06/02 13:46:33;;;;;;;2.67;1.35;;;19.90;78.50;;;;;;4992336;28;20108;-49
2022/06/02 13:49:46;;;;;;;1.27;1.17;;;20.20;81.80;;;;;;5001881;28;20049;-49
2022/06/02 13:52:15;;;;;;;1.77;1.17;;;20.70;78.20;;;;;;4998331;28;20124;-50
2022/06/02 13:58:46;;;;;;;1.38;1.05;;;21.50;77.60;;;;;;5010657;28;20046;-52
2022/06/02 14:01:29;;;;;;;1.45;1.10;;;22.00;80.60;;;;;;4951028;29;20065;-53
2022/06/02 14:04:19;;;;;;;2.47;1.23;;;22.50;70.60;;;;;;4949810;29;20057;-54
2022/06/02 14:06:52;;;;;;;1.30;1.00;;;22.30;68.20;;;;;;4949001;28;20059;-54
2022/06/02 14:09:29;;;;;;;2.25;1.20;;;23.00;72.90;;;;;;4950286;29;20047;-53
2022/06/02 14:12:22;;;;;;;1.48;1.00;;;23.10;70.50;;;;;;4951055;29;20047;-52
2022/06/02 14:15:07;;;;;;;1.23;1.10;;;23.10;69.40;;;;;;4951075;29;20047;-50
2022/06/02 14:18:06;;;;;;;1.33;1.10;;;22.70;71.90;;;;;;4948839;29;20102;-53
2022/06/02 14:20:59;;;;;;;2.25;1.23;;;22.30;71.10;;;;;;4950865;29;20047;-52
2022/06/02 14:24:03;;;;;;;1.63;1.40;;;21.80;68.20;;;;;;4949421;29;20051;-50
2022/06/02 14:26:52;;;;;;;2.35;1.20;;;22.10;69.80;;;;;;4941981;29;20551;-52
2022/06/02 14:29:42;;;;;;;1.30;1.20;;;22.60;70.30;;;;;;4950924;29;20043;-51
2022/06/02 14:32:24;;;;;;;3.47;1.33;;;22.70;68.40;;;;;;4983574;28;20085;-50
2022/06/02 14:35:12;;;;;;;1.92;1.02;;;23.00;68.20;;;;;;5011559;28;20046;-51